PWSweather.com
Personal Weather Stations
Station Observations
SHAHALMS1
Eftra, Falkenberg, HA

EftraFalkenberg, HA

Lat: 56.85, Lon: 12.65

Elevation: 140

Station Type:

http://hem.passagen.se/risarp101

High Low Average
Temperature 63.9°F17.7°C 51.3°F10.7°C 57.1°F13.9°C
Dew Point 57.7°F14.3°C 43.8°F6.6°C 52.4°F11.3°C
Winds 11.1 mph 17.9 kmh 1.6 mph 2.6 kmh 6.0 mph SW9.7 kmh SW
Wind Gusts 36.1 mph58.1 kmh 6.1 mph9.8 kmh 15.0 mph24.1 kmh
Humidity 96% 73% 84%
Pressure 30.09 in1019.0 mb 29.98 in1015.2 mb -
Precipitation 0.00 in0.0 mm - -
Hour Temp Dew Point Humidity Winds Wind Gusts Pressure Precip Precip Rate Daily Precip Total
12:00 AM 50.7°F10.4°C 44.4°F6.9°C 79% 2.0 mph ESE3.2 kmh ESE 6.4 mph10.3 kmh 30.12 in1020.0 mb 0.00 in0.0 mm 0.00 in0.0 mm 0.00 in0.0 mm
12:10 AM 50.5°F10.3°C 44.3°F6.8°C 79% 3.3 mph SE5.3 kmh SE 7.5 mph12.1 kmh 30.12 in1020.0 mb 0.00 in0.0 mm 0.00 in0.0 mm 0.00 in0.0 mm
12:20 AM 50.7°F10.4°C 44.4°F6.9°C 79% 0.7 mph SE1.1 kmh SE 6.1 mph9.8 kmh 30.12 in1020.0 mb 0.00 in0.0 mm 0.00 in0.0 mm 0.00 in0.0 mm
12:30 AM 50.9°F10.5°C 44.3°F6.8°C 78% 0.6 mph ESE1.0 kmh ESE 6.8 mph10.9 kmh 30.12 in1020.0 mb 0.00 in0.0 mm 0.00 in0.0 mm 0.00 in0.0 mm
12:40 AM 51.1°F10.6°C 44.1°F6.7°C 77% 3.8 mph ESE6.1 kmh ESE 8.6 mph13.8 kmh 30.12 in1020.0 mb 0.00 in0.0 mm 0.00 in0.0 mm 0.00 in0.0 mm
12:50 AM 51.1°F10.6°C 43.8°F6.6°C 76% 3.0 mph SE4.8 kmh SE 9.7 mph15.6 kmh 30.09 in1019.0 mb 0.00 in0.0 mm 0.00 in0.0 mm 0.00 in0.0 mm
01:00 AM 51.3°F10.7°C 44.0°F6.7°C 76% 1.6 mph SE2.6 kmh SE 7.5 mph12.1 kmh 30.09 in1019.0 mb 0.00 in0.0 mm 0.00 in0.0 mm 0.00 in0.0 mm
01:10 AM 51.4°F10.8°C 43.8°F6.6°C 75% 2.5 mph SE4.0 kmh SE 8.9 mph14.3 kmh 30.09 in1019.0 mb 0.00 in0.0 mm 0.00 in0.0 mm 0.00 in0.0 mm
01:20 AM 51.4°F10.8°C 43.8°F6.6°C 75% 2.9 mph SE4.7 kmh SE 7.9 mph12.7 kmh 30.09 in1019.0 mb 0.00 in0.0 mm 0.00 in0.0 mm 0.00 in0.0 mm
01:30 AM 51.4°F10.8°C 43.8°F6.6°C 75% 2.8 mph SE4.5 kmh SE 11.8 mph19.0 kmh 30.09 in1019.0 mb 0.00 in0.0 mm 0.00 in0.0 mm 0.00 in0.0 mm
01:40 AM 51.6°F10.9°C 44.0°F6.7°C 75% 2.0 mph SE3.2 kmh SE 7.9 mph12.7 kmh 30.09 in1019.0 mb 0.00 in0.0 mm 0.00 in0.0 mm 0.00 in0.0 mm
01:50 AM 51.8°F11.0°C 44.1°F6.7°C 75% 4.7 mph SE7.6 kmh SE 9.7 mph15.6 kmh 30.07 in1018.3 mb 0.00 in0.0 mm 0.00 in0.0 mm 0.00 in0.0 mm
02:00 AM 52.0°F11.1°C 45.0°F7.2°C 77% 1.8 mph SSE2.9 kmh SSE 6.1 mph9.8 kmh 30.07 in1018.3 mb 0.00 in0.0 mm 0.00 in0.0 mm 0.00 in0.0 mm
02:10 AM 52.3°F11.3°C 45.7°F7.6°C 78% 2.0 mph S3.2 kmh S 11.8 mph19.0 kmh 30.07 in1018.3 mb 0.00 in0.0 mm 0.00 in0.0 mm 0.00 in0.0 mm
02:20 AM 52.7°F11.5°C 46.4°F8.0°C 79% 3.0 mph SSE4.8 kmh SSE 9.7 mph15.6 kmh 30.07 in1018.3 mb 0.00 in0.0 mm 0.00 in0.0 mm 0.00 in0.0 mm
02:30 AM 53.1°F11.7°C 46.7°F8.2°C 79% 3.0 mph SSE4.8 kmh SSE 8.9 mph14.3 kmh 30.04 in1017.3 mb 0.00 in0.0 mm 0.00 in0.0 mm 0.00 in0.0 mm
02:40 AM 53.4°F11.9°C 47.4°F8.6°C 80% 2.8 mph SSE4.5 kmh SSE 9.3 mph15.0 kmh 30.04 in1017.3 mb 0.00 in0.0 mm 0.00 in0.0 mm 0.00 in0.0 mm
02:50 AM 53.6°F12.0°C 47.9°F8.8°C 81% 2.6 mph S4.2 kmh S 7.9 mph12.7 kmh 30.04 in1017.3 mb 0.00 in0.0 mm 0.00 in0.0 mm 0.00 in0.0 mm
03:00 AM 54.0°F12.2°C 48.6°F9.2°C 82% 2.9 mph S4.7 kmh S 8.9 mph14.3 kmh 30.07 in1018.3 mb 0.00 in0.0 mm 0.00 in0.0 mm 0.00 in0.0 mm
03:10 AM 54.3°F12.4°C 49.6°F9.8°C 84% 2.9 mph S4.7 kmh S 6.8 mph10.9 kmh 30.07 in1018.3 mb 0.00 in0.0 mm 0.00 in0.0 mm 0.00 in0.0 mm
03:20 AM 54.9°F12.7°C 51.4°F10.8°C 88% 4.2 mph S6.8 kmh S 10.0 mph16.1 kmh 30.07 in1018.3 mb 0.00 in0.0 mm 0.00 in0.0 mm 0.00 in0.0 mm
03:30 AM 55.4°F13.0°C 52.2°F11.2°C 89% 5.3 mph S8.5 kmh S 13.6 mph21.9 kmh 30.07 in1018.3 mb 0.00 in0.0 mm 0.00 in0.0 mm 0.00 in0.0 mm
03:40 AM 55.6°F13.1°C 53.0°F11.7°C 91% 5.5 mph S8.9 kmh S 15.4 mph24.8 kmh 30.07 in1018.3 mb 0.00 in0.0 mm 0.00 in0.0 mm 0.00 in0.0 mm
03:50 AM 55.6°F13.1°C 53.0°F11.7°C 91% 5.2 mph S8.4 kmh S 10.4 mph16.7 kmh 30.07 in1018.3 mb 0.00 in0.0 mm 0.00 in0.0 mm 0.00 in0.0 mm
04:00 AM 55.6°F13.1°C 53.3°F11.8°C 92% 4.4 mph S7.1 kmh S 13.6 mph21.9 kmh 30.07 in1018.3 mb 0.00 in0.0 mm 0.00 in0.0 mm 0.00 in0.0 mm
04:10 AM 55.6°F13.1°C 53.3°F11.8°C 92% 4.9 mph S7.9 kmh S 11.8 mph19.0 kmh 30.07 in1018.3 mb 0.00 in0.0 mm 0.00 in0.0 mm 0.00 in0.0 mm
04:20 AM 55.6°F13.1°C 53.6°F12.0°C 93% 4.9 mph S7.9 kmh S 10.4 mph16.7 kmh 30.07 in1018.3 mb 0.00 in0.0 mm 0.00 in0.0 mm 0.00 in0.0 mm
04:30 AM 55.8°F13.2°C 54.1°F12.3°C 94% 5.2 mph S8.4 kmh S 9.3 mph15.0 kmh 30.04 in1017.3 mb 0.00 in0.0 mm 0.00 in0.0 mm 0.00 in0.0 mm
04:40 AM 55.8°F13.2°C 54.1°F12.3°C 94% 6.0 mph S9.7 kmh S 12.5 mph20.1 kmh 30.04 in1017.3 mb 0.00 in0.0 mm 0.00 in0.0 mm 0.00 in0.0 mm
04:50 AM 55.9°F13.3°C 54.2°F12.3°C 94% 6.4 mph S10.3 kmh S 19.3 mph31.1 kmh 30.04 in1017.3 mb 0.00 in0.0 mm 0.00 in0.0 mm 0.00 in0.0 mm
05:00 AM 55.9°F13.3°C 54.5°F12.5°C 95% 7.5 mph S12.1 kmh S 15.7 mph25.3 kmh 30.04 in1017.3 mb 0.00 in0.0 mm 0.00 in0.0 mm 0.00 in0.0 mm
05:10 AM 55.9°F13.3°C 54.5°F12.5°C 95% 6.6 mph S10.6 kmh S 15.7 mph25.3 kmh 30.04 in1017.3 mb 0.00 in0.0 mm 0.00 in0.0 mm 0.00 in0.0 mm
05:20 AM 55.9°F13.3°C 54.5°F12.5°C 95% 5.6 mph S9.0 kmh S 10.0 mph16.1 kmh 30.04 in1017.3 mb 0.00 in0.0 mm 0.00 in0.0 mm 0.00 in0.0 mm
05:30 AM 56.1°F13.4°C 54.7°F12.6°C 95% 6.2 mph S10.0 kmh S 14.0 mph22.5 kmh 30.04 in1017.3 mb 0.00 in0.0 mm 0.00 in0.0 mm 0.00 in0.0 mm
05:40 AM 56.3°F13.5°C 54.9°F12.7°C 95% 5.6 mph S9.0 kmh S 15.4 mph24.8 kmh 30.04 in1017.3 mb 0.00 in0.0 mm 0.00 in0.0 mm 0.00 in0.0 mm
05:50 AM 56.3°F13.5°C 54.9°F12.7°C 95% 6.4 mph S10.3 kmh S 16.8 mph27.0 kmh 30.04 in1017.3 mb 0.00 in0.0 mm 0.00 in0.0 mm 0.00 in0.0 mm
06:00 AM 56.3°F13.5°C 55.2°F12.9°C 96% 6.2 mph S10.0 kmh S 13.6 mph21.9 kmh 30.04 in1017.3 mb 0.00 in0.0 mm 0.00 in0.0 mm 0.00 in0.0 mm
06:10 AM 56.3°F13.5°C 55.2°F12.9°C 96% 7.0 mph S11.3 kmh S 13.6 mph21.9 kmh 30.04 in1017.3 mb 0.00 in0.0 mm 0.00 in0.0 mm 0.00 in0.0 mm
06:20 AM 56.1°F13.4°C 55.0°F12.8°C 96% 7.3 mph SW11.7 kmh SW 20.0 mph32.2 kmh 30.04 in1017.3 mb 0.00 in0.0 mm 0.00 in0.0 mm 0.00 in0.0 mm
06:30 AM 56.3°F13.5°C 55.2°F12.9°C 96% 7.1 mph SSW11.4 kmh SSW 17.5 mph28.2 kmh 30.04 in1017.3 mb 0.00 in0.0 mm 0.00 in0.0 mm 0.00 in0.0 mm
06:40 AM 56.3°F13.5°C 54.9°F12.7°C 95% 6.7 mph S10.8 kmh S 15.4 mph24.8 kmh 30.04 in1017.3 mb 0.00 in0.0 mm 0.00 in0.0 mm 0.00 in0.0 mm
06:50 AM 56.3°F13.5°C 54.9°F12.7°C 95% 5.6 mph SSW9.0 kmh SSW 16.1 mph25.9 kmh 30.04 in1017.3 mb 0.00 in0.0 mm 0.00 in0.0 mm 0.00 in0.0 mm
07:00 AM 56.3°F13.5°C 54.9°F12.7°C 95% 6.0 mph S9.7 kmh S 16.5 mph26.6 kmh 30.04 in1017.3 mb 0.00 in0.0 mm 0.00 in0.0 mm 0.00 in0.0 mm
07:10 AM 56.3°F13.5°C 54.9°F12.7°C 95% 6.4 mph SSW10.3 kmh SSW 16.1 mph25.9 kmh 30.04 in1017.3 mb 0.00 in0.0 mm 0.00 in0.0 mm 0.00 in0.0 mm
07:20 AM 56.7°F13.7°C 55.2°F12.9°C 95% 7.1 mph S11.4 kmh S 17.5 mph28.2 kmh 30.04 in1017.3 mb 0.00 in0.0 mm 0.00 in0.0 mm 0.00 in0.0 mm
07:30 AM 56.7°F13.7°C 55.2°F12.9°C 95% 7.3 mph S11.7 kmh S 16.1 mph25.9 kmh 30.01 in1016.3 mb 0.00 in0.0 mm 0.00 in0.0 mm 0.00 in0.0 mm
07:40 AM 56.5°F13.6°C 55.1°F12.8°C 95% 7.4 mph S11.9 kmh S 20.8 mph33.5 kmh 30.01 in1016.3 mb 0.00 in0.0 mm 0.00 in0.0 mm 0.00 in0.0 mm
07:50 AM 56.7°F13.7°C 55.2°F12.9°C 95% 6.3 mph S10.1 kmh S 12.5 mph20.1 kmh 30.01 in1016.3 mb 0.00 in0.0 mm 0.00 in0.0 mm 0.00 in0.0 mm
08:00 AM 57.0°F13.9°C 55.6°F13.1°C 95% 8.2 mph S13.2 kmh S 19.3 mph31.1 kmh 30.01 in1016.3 mb 0.00 in0.0 mm 0.00 in0.0 mm 0.00 in0.0 mm
08:10 AM 57.7°F14.3°C 56.3°F13.5°C 95% 9.3 mph S15.0 kmh S 24.3 mph39.1 kmh 30.01 in1016.3 mb 0.00 in0.0 mm 0.00 in0.0 mm 0.00 in0.0 mm
08:20 AM 58.3°F14.6°C 56.6°F13.7°C 94% 8.7 mph S14.0 kmh S 25.1 mph40.4 kmh 30.01 in1016.3 mb 0.00 in0.0 mm 0.00 in0.0 mm 0.00 in0.0 mm
08:30 AM 58.5°F14.7°C 56.4°F13.6°C 93% 7.9 mph S12.7 kmh S 16.8 mph27.0 kmh 30.01 in1016.3 mb 0.00 in0.0 mm 0.00 in0.0 mm 0.00 in0.0 mm
08:40 AM 58.1°F14.5°C 55.8°F13.2°C 92% 7.7 mph S12.4 kmh S 21.8 mph35.1 kmh 30.01 in1016.3 mb 0.00 in0.0 mm 0.00 in0.0 mm 0.00 in0.0 mm
08:50 AM 58.1°F14.5°C 55.5°F13.1°C 91% 7.9 mph S12.7 kmh S 20.8 mph33.5 kmh 30.01 in1016.3 mb 0.00 in0.0 mm 0.00 in0.0 mm 0.00 in0.0 mm
09:00 AM 58.1°F14.5°C 55.5°F13.1°C 91% 8.1 mph S13.0 kmh S 16.1 mph25.9 kmh 30.01 in1016.3 mb 0.00 in0.0 mm 0.00 in0.0 mm 0.00 in0.0 mm
09:10 AM 58.1°F14.5°C 55.5°F13.1°C 91% 8.2 mph S13.2 kmh S 18.3 mph29.5 kmh 30.01 in1016.3 mb 0.00 in0.0 mm 0.00 in0.0 mm 0.00 in0.0 mm
09:20 AM 58.3°F14.6°C 55.7°F13.2°C 91% 7.9 mph S12.7 kmh S 19.0 mph30.6 kmh 30.01 in1016.3 mb 0.00 in0.0 mm 0.00 in0.0 mm 0.00 in0.0 mm
09:30 AM 58.8°F14.9°C 56.2°F13.4°C 91% 8.5 mph S13.7 kmh S 21.1 mph34.0 kmh 29.98 in1015.2 mb 0.00 in0.0 mm 0.00 in0.0 mm 0.00 in0.0 mm
09:40 AM 58.8°F14.9°C 55.9°F13.3°C 90% 9.7 mph S15.6 kmh S 20.4 mph32.8 kmh 29.98 in1015.2 mb 0.00 in0.0 mm 0.00 in0.0 mm 0.00 in0.0 mm
09:50 AM 59.2°F15.1°C 55.9°F13.3°C 89% 9.3 mph S15.0 kmh S 22.2 mph35.7 kmh 30.01 in1016.3 mb 0.00 in0.0 mm 0.00 in0.0 mm 0.00 in0.0 mm
10:00 AM 58.5°F14.7°C 54.9°F12.7°C 88% 8.0 mph S12.9 kmh S 16.5 mph26.6 kmh 30.01 in1016.3 mb 0.00 in0.0 mm 0.00 in0.0 mm 0.00 in0.0 mm
10:10 AM 58.1°F14.5°C 54.9°F12.7°C 89% 8.5 mph S13.7 kmh S 19.7 mph31.7 kmh 30.01 in1016.3 mb 0.00 in0.0 mm 0.00 in0.0 mm 0.00 in0.0 mm
10:20 AM 58.1°F14.5°C 55.2°F12.9°C 90% 8.1 mph S13.0 kmh S 16.5 mph26.6 kmh 30.01 in1016.3 mb 0.00 in0.0 mm 0.00 in0.0 mm 0.00 in0.0 mm
10:30 AM 59.0°F15.0°C 56.4°F13.6°C 91% 7.9 mph S12.7 kmh S 20.8 mph33.5 kmh 30.01 in1016.3 mb 0.00 in0.0 mm 0.00 in0.0 mm 0.00 in0.0 mm
10:40 AM 59.5°F15.3°C 56.3°F13.5°C 89% 11.1 mph S17.9 kmh S 21.8 mph35.1 kmh 30.01 in1016.3 mb 0.00 in0.0 mm 0.00 in0.0 mm 0.00 in0.0 mm
10:50 AM 60.8°F16.0°C 57.5°F14.2°C 89% 8.1 mph S13.0 kmh S 20.4 mph32.8 kmh 30.01 in1016.3 mb 0.00 in0.0 mm 0.00 in0.0 mm 0.00 in0.0 mm
11:00 AM 60.8°F16.0°C 56.3°F13.5°C 85% 10.5 mph S16.9 kmh S 24.3 mph39.1 kmh 30.01 in1016.3 mb 0.00 in0.0 mm 0.00 in0.0 mm 0.00 in0.0 mm
11:10 AM 60.4°F15.8°C 55.9°F13.3°C 85% 10.1 mph S16.3 kmh S 24.3 mph39.1 kmh 30.01 in1016.3 mb 0.00 in0.0 mm 0.00 in0.0 mm 0.00 in0.0 mm
11:20 AM 60.6°F15.9°C 56.1°F13.4°C 85% 9.0 mph S14.5 kmh S 21.5 mph34.6 kmh 30.01 in1016.3 mb 0.00 in0.0 mm 0.00 in0.0 mm 0.00 in0.0 mm
11:30 AM 60.3°F15.7°C 55.4°F13.0°C 84% 9.4 mph S15.1 kmh S 31.1 mph50.1 kmh 29.98 in1015.2 mb 0.00 in0.0 mm 0.00 in0.0 mm 0.00 in0.0 mm
11:40 AM 60.1°F15.6°C 55.6°F13.1°C 85% 7.7 mph S12.4 kmh S 23.6 mph38.0 kmh 29.98 in1015.2 mb 0.00 in0.0 mm 0.00 in0.0 mm 0.00 in0.0 mm
11:50 AM 59.9°F15.5°C 55.4°F13.0°C 85% 9.7 mph SSW15.6 kmh SSW 20.8 mph33.5 kmh 30.01 in1016.3 mb 0.00 in0.0 mm 0.00 in0.0 mm 0.00 in0.0 mm
12:00 PM 60.6°F15.9°C 56.4°F13.6°C 86% 8.3 mph SW13.4 kmh SW 20.4 mph32.8 kmh 30.01 in1016.3 mb 0.00 in0.0 mm 0.00 in0.0 mm 0.00 in0.0 mm
12:10 PM 61.5°F16.4°C 57.0°F13.9°C 85% 7.8 mph SW12.6 kmh SW 16.5 mph26.6 kmh 30.01 in1016.3 mb 0.00 in0.0 mm 0.00 in0.0 mm 0.00 in0.0 mm
12:20 PM 60.8°F16.0°C 55.6°F13.1°C 83% 9.1 mph SSW14.6 kmh SSW 21.1 mph34.0 kmh 30.01 in1016.3 mb 0.00 in0.0 mm 0.00 in0.0 mm 0.00 in0.0 mm
12:30 PM 60.6°F15.9°C 55.8°F13.2°C 84% 7.9 mph SW12.7 kmh SW 20.0 mph32.2 kmh 29.98 in1015.2 mb 0.00 in0.0 mm 0.00 in0.0 mm 0.00 in0.0 mm
12:40 PM 61.5°F16.4°C 57.0°F13.9°C 85% 9.1 mph WSW14.6 kmh WSW 20.8 mph33.5 kmh 29.98 in1015.2 mb 0.00 in0.0 mm 0.00 in0.0 mm 0.00 in0.0 mm
12:50 PM 62.6°F17.0°C 57.7°F14.3°C 84% 10.8 mph SW17.4 kmh SW 32.2 mph51.8 kmh 30.01 in1016.3 mb 0.00 in0.0 mm 0.00 in0.0 mm 0.00 in0.0 mm
01:00 PM 63.1°F17.3°C 57.6°F14.2°C 82% 10.9 mph S17.5 kmh S 28.3 mph45.5 kmh 30.01 in1016.3 mb 0.00 in0.0 mm 0.00 in0.0 mm 0.00 in0.0 mm
01:10 PM 63.7°F17.6°C 57.7°F14.3°C 81% 10.7 mph WSW17.2 kmh WSW 36.1 mph58.1 kmh 30.01 in1016.3 mb 0.00 in0.0 mm 0.00 in0.0 mm 0.00 in0.0 mm
01:20 PM 63.7°F17.6°C 57.4°F14.1°C 80% 10.0 mph WSW16.1 kmh WSW 19.3 mph31.1 kmh 30.01 in1016.3 mb 0.00 in0.0 mm 0.00 in0.0 mm 0.00 in0.0 mm
01:30 PM 63.5°F17.5°C 56.9°F13.8°C 79% 10.3 mph WSW16.6 kmh WSW 27.6 mph44.4 kmh 30.01 in1016.3 mb 0.00 in0.0 mm 0.00 in0.0 mm 0.00 in0.0 mm
01:40 PM 63.9°F17.7°C 57.2°F14.0°C 79% 9.0 mph WSW14.5 kmh WSW 23.6 mph38.0 kmh 30.01 in1016.3 mb 0.00 in0.0 mm 0.00 in0.0 mm 0.00 in0.0 mm
01:50 PM 63.5°F17.5°C 56.5°F13.6°C 78% 10.5 mph WSW16.9 kmh WSW 27.2 mph43.8 kmh 30.01 in1016.3 mb 0.00 in0.0 mm 0.00 in0.0 mm 0.00 in0.0 mm
02:00 PM 63.3°F17.4°C 56.3°F13.5°C 78% 8.9 mph W14.3 kmh W 19.0 mph30.6 kmh 30.01 in1016.3 mb 0.00 in0.0 mm 0.00 in0.0 mm 0.00 in0.0 mm
02:10 PM 62.8°F17.1°C 55.8°F13.2°C 78% 7.6 mph W12.2 kmh W 16.8 mph27.0 kmh 30.01 in1016.3 mb 0.00 in0.0 mm 0.00 in0.0 mm 0.00 in0.0 mm
02:20 PM 61.5°F16.4°C 54.9°F12.7°C 79% 6.1 mph W9.8 kmh W 12.5 mph20.1 kmh 29.98 in1015.2 mb 0.00 in0.0 mm 0.00 in0.0 mm 0.00 in0.0 mm
02:30 PM 62.1°F16.7°C 56.2°F13.4°C 81% 4.5 mph WSW7.2 kmh WSW 10.4 mph16.7 kmh 30.01 in1016.3 mb 0.00 in0.0 mm 0.00 in0.0 mm 0.00 in0.0 mm
02:40 PM 61.5°F16.4°C 54.9°F12.7°C 79% 5.7 mph W9.2 kmh W 17.5 mph28.2 kmh 30.01 in1016.3 mb 0.00 in0.0 mm 0.00 in0.0 mm 0.00 in0.0 mm
02:50 PM 61.0°F16.1°C 54.4°F12.4°C 79% 4.7 mph WNW7.6 kmh WNW 11.1 mph17.9 kmh 30.01 in1016.3 mb 0.00 in0.0 mm 0.00 in0.0 mm 0.00 in0.0 mm
03:00 PM 60.4°F15.8°C 53.9°F12.2°C 79% 5.0 mph WNW8.0 kmh WNW 14.7 mph23.7 kmh 30.01 in1016.3 mb 0.00 in0.0 mm 0.00 in0.0 mm 0.00 in0.0 mm
03:10 PM 61.0°F16.1°C 54.4°F12.4°C 79% 6.0 mph W9.7 kmh W 12.9 mph20.8 kmh 30.01 in1016.3 mb 0.00 in0.0 mm 0.00 in0.0 mm 0.00 in0.0 mm
03:20 PM 61.5°F16.4°C 54.6°F12.6°C 78% 5.0 mph WNW8.0 kmh WNW 13.6 mph21.9 kmh 30.01 in1016.3 mb 0.00 in0.0 mm 0.00 in0.0 mm 0.00 in0.0 mm
03:30 PM 61.5°F16.4°C 54.6°F12.6°C 78% 4.8 mph W7.7 kmh W 11.8 mph19.0 kmh 30.01 in1016.3 mb 0.00 in0.0 mm 0.00 in0.0 mm 0.00 in0.0 mm
03:40 PM 61.5°F16.4°C 54.2°F12.3°C 77% 5.7 mph WNW9.2 kmh WNW 14.0 mph22.5 kmh 30.01 in1016.3 mb 0.00 in0.0 mm 0.00 in0.0 mm 0.00 in0.0 mm
03:50 PM 61.3°F16.3°C 53.7°F12.1°C 76% 6.2 mph W10.0 kmh W 15.4 mph24.8 kmh 30.01 in1016.3 mb 0.00 in0.0 mm 0.00 in0.0 mm 0.00 in0.0 mm
04:00 PM 61.9°F16.6°C 54.2°F12.3°C 76% 6.0 mph W9.7 kmh W 26.1 mph42.0 kmh 30.01 in1016.3 mb 0.00 in0.0 mm 0.00 in0.0 mm 0.00 in0.0 mm
04:10 PM 62.6°F17.0°C 54.2°F12.3°C 74% 5.7 mph W9.2 kmh W 15.4 mph24.8 kmh 30.01 in1016.3 mb 0.00 in0.0 mm 0.00 in0.0 mm 0.00 in0.0 mm
04:20 PM 61.5°F16.4°C 53.2°F11.8°C 74% 5.6 mph WNW9.0 kmh WNW 13.6 mph21.9 kmh 30.01 in1016.3 mb 0.00 in0.0 mm 0.00 in0.0 mm 0.00 in0.0 mm
04:30 PM 60.4°F15.8°C 52.1°F11.2°C 74% 7.3 mph W11.7 kmh W 20.0 mph32.2 kmh 30.04 in1017.3 mb 0.00 in0.0 mm 0.00 in0.0 mm 0.00 in0.0 mm
04:40 PM 59.7°F15.4°C 52.1°F11.2°C 76% 4.3 mph WNW6.9 kmh WNW 9.7 mph15.6 kmh 30.04 in1017.3 mb 0.00 in0.0 mm 0.00 in0.0 mm 0.00 in0.0 mm
04:50 PM 59.2°F15.1°C 52.0°F11.1°C 77% 5.3 mph WNW8.5 kmh WNW 23.6 mph38.0 kmh 30.01 in1016.3 mb 0.00 in0.0 mm 0.00 in0.0 mm 0.00 in0.0 mm
05:00 PM 59.2°F15.1°C 52.3°F11.3°C 78% 7.1 mph WNW11.4 kmh WNW 19.3 mph31.1 kmh 30.04 in1017.3 mb 0.00 in0.0 mm 0.00 in0.0 mm 0.00 in0.0 mm
05:10 PM 59.2°F15.1°C 52.0°F11.1°C 77% 7.0 mph W11.3 kmh W 19.3 mph31.1 kmh 30.04 in1017.3 mb 0.00 in0.0 mm 0.00 in0.0 mm 0.00 in0.0 mm
05:20 PM 59.7°F15.4°C 52.1°F11.2°C 76% 5.6 mph W9.0 kmh W 15.7 mph25.3 kmh 30.04 in1017.3 mb 0.00 in0.0 mm 0.00 in0.0 mm 0.00 in0.0 mm
05:30 PM 59.9°F15.5°C 51.6°F10.9°C 74% 6.3 mph W10.1 kmh W 19.7 mph31.7 kmh 30.04 in1017.3 mb 0.00 in0.0 mm 0.00 in0.0 mm 0.00 in0.0 mm
05:40 PM 59.2°F15.1°C 50.5°F10.3°C 73% 6.4 mph WNW10.3 kmh WNW 20.0 mph32.2 kmh 30.04 in1017.3 mb 0.00 in0.0 mm 0.00 in0.0 mm 0.00 in0.0 mm
05:50 PM 58.5°F14.7°C 49.8°F9.9°C 73% 4.4 mph W7.1 kmh W 16.5 mph26.6 kmh 30.04 in1017.3 mb 0.00 in0.0 mm 0.00 in0.0 mm 0.00 in0.0 mm
06:00 PM 57.9°F14.4°C 49.7°F9.8°C 74% 4.2 mph WNW6.8 kmh WNW 10.4 mph16.7 kmh 30.01 in1016.3 mb 0.00 in0.0 mm 0.00 in0.0 mm 0.00 in0.0 mm
06:10 PM 57.6°F14.2°C 49.7°F9.8°C 75% 2.7 mph WNW4.3 kmh WNW 11.5 mph18.5 kmh 30.01 in1016.3 mb 0.00 in0.0 mm 0.00 in0.0 mm 0.00 in0.0 mm
06:20 PM 57.0°F13.9°C 49.5°F9.7°C 76% 4.2 mph W6.8 kmh W 14.3 mph23.0 kmh 30.01 in1016.3 mb 0.00 in0.0 mm 0.00 in0.0 mm 0.00 in0.0 mm
06:30 PM 56.7°F13.7°C 49.5°F9.7°C 77% 4.1 mph W6.6 kmh W 12.9 mph20.8 kmh 30.04 in1017.3 mb 0.00 in0.0 mm 0.00 in0.0 mm 0.00 in0.0 mm
06:40 PM 56.5°F13.6°C 49.4°F9.7°C 77% 3.7 mph W6.0 kmh W 9.7 mph15.6 kmh 30.04 in1017.3 mb 0.00 in0.0 mm 0.00 in0.0 mm 0.00 in0.0 mm
06:50 PM 56.5°F13.6°C 49.7°F9.8°C 78% 3.2 mph W5.1 kmh W 10.4 mph16.7 kmh 30.01 in1016.3 mb 0.00 in0.0 mm 0.00 in0.0 mm 0.00 in0.0 mm
07:00 PM 56.1°F13.4°C 49.4°F9.7°C 78% 3.6 mph W5.8 kmh W 9.7 mph15.6 kmh 30.01 in1016.3 mb 0.00 in0.0 mm 0.00 in0.0 mm 0.00 in0.0 mm
07:10 PM 55.6°F13.1°C 48.8°F9.3°C 78% 4.0 mph W6.4 kmh W 12.9 mph20.8 kmh 30.01 in1016.3 mb 0.00 in0.0 mm 0.00 in0.0 mm 0.00 in0.0 mm
07:20 PM 55.2°F12.9°C 48.8°F9.3°C 79% 3.6 mph W5.8 kmh W 11.8 mph19.0 kmh 30.01 in1016.3 mb 0.00 in0.0 mm 0.00 in0.0 mm 0.00 in0.0 mm
07:30 PM 55.2°F12.9°C 48.8°F9.3°C 79% 3.2 mph WNW5.1 kmh WNW 9.3 mph15.0 kmh 30.01 in1016.3 mb 0.00 in0.0 mm 0.00 in0.0 mm 0.00 in0.0 mm
07:40 PM 55.2°F12.9°C 48.8°F9.3°C 79% 3.8 mph W6.1 kmh W 12.9 mph20.8 kmh 30.01 in1016.3 mb 0.00 in0.0 mm 0.00 in0.0 mm 0.00 in0.0 mm
07:50 PM 55.0°F12.8°C 48.6°F9.2°C 79% 3.0 mph W4.8 kmh W 8.6 mph13.8 kmh 30.01 in1016.3 mb 0.00 in0.0 mm 0.00 in0.0 mm 0.00 in0.0 mm
08:00 PM 54.9°F12.7°C 48.8°F9.3°C 80% 3.7 mph W6.0 kmh W 10.0 mph16.1 kmh 30.04 in1017.3 mb 0.00 in0.0 mm 0.00 in0.0 mm 0.00 in0.0 mm
08:10 PM 54.5°F12.5°C 48.5°F9.2°C 80% 4.0 mph W6.4 kmh W 9.3 mph15.0 kmh 30.04 in1017.3 mb 0.00 in0.0 mm 0.00 in0.0 mm 0.00 in0.0 mm
08:20 PM 54.5°F12.5°C 48.8°F9.3°C 81% 4.1 mph W6.6 kmh W 10.4 mph16.7 kmh 30.01 in1016.3 mb 0.00 in0.0 mm 0.00 in0.0 mm 0.00 in0.0 mm
08:30 PM 54.3°F12.4°C 48.6°F9.2°C 81% 3.7 mph W6.0 kmh W 7.9 mph12.7 kmh 30.04 in1017.3 mb 0.00 in0.0 mm 0.00 in0.0 mm 0.00 in0.0 mm
08:40 PM 54.1°F12.3°C 48.4°F9.1°C 81% 3.4 mph W5.5 kmh W 7.5 mph12.1 kmh 30.04 in1017.3 mb 0.00 in0.0 mm 0.00 in0.0 mm 0.00 in0.0 mm
08:50 PM 54.1°F12.3°C 48.8°F9.3°C 82% 3.8 mph W6.1 kmh W 9.3 mph15.0 kmh 30.04 in1017.3 mb 0.00 in0.0 mm 0.00 in0.0 mm 0.00 in0.0 mm
09:00 PM 53.8°F12.1°C 48.4°F9.1°C 82% 4.2 mph W6.8 kmh W 9.7 mph15.6 kmh 30.04 in1017.3 mb 0.00 in0.0 mm 0.00 in0.0 mm 0.00 in0.0 mm
09:10 PM 53.6°F12.0°C 48.2°F9.0°C 82% 5.1 mph W8.2 kmh W 12.2 mph19.6 kmh 30.04 in1017.3 mb 0.00 in0.0 mm 0.00 in0.0 mm 0.00 in0.0 mm
09:20 PM 53.6°F12.0°C 48.6°F9.2°C 83% 4.8 mph W7.7 kmh W 15.4 mph24.8 kmh 30.04 in1017.3 mb 0.00 in0.0 mm 0.00 in0.0 mm 0.00 in0.0 mm
09:30 PM 53.6°F12.0°C 48.6°F9.2°C 83% 4.7 mph W7.6 kmh W 12.2 mph19.6 kmh 30.04 in1017.3 mb 0.00 in0.0 mm 0.00 in0.0 mm 0.00 in0.0 mm
09:40 PM 53.6°F12.0°C 48.9°F9.4°C 84% 4.0 mph W6.4 kmh W 11.5 mph18.5 kmh 30.04 in1017.3 mb 0.00 in0.0 mm 0.00 in0.0 mm 0.00 in0.0 mm
09:50 PM 53.2°F11.8°C 48.5°F9.2°C 84% 3.0 mph W4.8 kmh W 6.8 mph10.9 kmh 30.01 in1016.3 mb 0.00 in0.0 mm 0.00 in0.0 mm 0.00 in0.0 mm
10:00 PM 53.1°F11.7°C 48.4°F9.1°C 84% 2.7 mph W4.3 kmh W 7.9 mph12.7 kmh 30.04 in1017.3 mb 0.00 in0.0 mm 0.00 in0.0 mm 0.00 in0.0 mm
10:10 PM 53.1°F11.7°C 48.4°F9.1°C 84% 2.1 mph W3.4 kmh W 6.4 mph10.3 kmh 30.04 in1017.3 mb 0.00 in0.0 mm 0.00 in0.0 mm 0.00 in0.0 mm
10:20 PM 52.9°F11.6°C 48.2°F9.0°C 84% 2.6 mph WSW4.2 kmh WSW 10.4 mph16.7 kmh 30.01 in1016.3 mb 0.00 in0.0 mm 0.00 in0.0 mm 0.00 in0.0 mm
10:30 PM 52.9°F11.6°C 48.5°F9.2°C 85% 2.5 mph W4.0 kmh W 7.5 mph12.1 kmh 30.01 in1016.3 mb 0.00 in0.0 mm 0.00 in0.0 mm 0.00 in0.0 mm
10:40 PM 53.1°F11.7°C 48.7°F9.3°C 85% 3.4 mph WNW5.5 kmh WNW 9.7 mph15.6 kmh 30.01 in1016.3 mb 0.00 in0.0 mm 0.00 in0.0 mm 0.00 in0.0 mm
10:50 PM 53.1°F11.7°C 49.0°F9.4°C 86% 3.1 mph WNW5.0 kmh WNW 11.5 mph18.5 kmh 30.04 in1017.3 mb 0.00 in0.0 mm 0.00 in0.0 mm 0.00 in0.0 mm
11:00 PM 53.1°F11.7°C 49.0°F9.4°C 86% 3.8 mph W6.1 kmh W 12.5 mph20.1 kmh 30.04 in1017.3 mb 0.00 in0.0 mm 0.00 in0.0 mm 0.00 in0.0 mm
11:10 PM 52.9°F11.6°C 48.8°F9.3°C 86% 4.0 mph W6.4 kmh W 12.2 mph19.6 kmh 30.04 in1017.3 mb 0.00 in0.0 mm 0.00 in0.0 mm 0.00 in0.0 mm
11:20 PM 52.9°F11.6°C 48.5°F9.2°C 85% 2.2 mph WNW3.5 kmh WNW 6.8 mph10.9 kmh 30.04 in1017.3 mb 0.00 in0.0 mm 0.00 in0.0 mm 0.00 in0.0 mm
11:30 PM 52.7°F11.5°C 48.3°F9.1°C 85% 2.8 mph W4.5 kmh W 11.5 mph18.5 kmh 30.04 in1017.3 mb 0.00 in0.0 mm 0.00 in0.0 mm 0.00 in0.0 mm
11:40 PM 52.7°F11.5°C 48.3°F9.1°C 85% 3.7 mph W6.0 kmh W 12.9 mph20.8 kmh 30.04 in1017.3 mb 0.00 in0.0 mm 0.00 in0.0 mm 0.00 in0.0 mm
11:50 PM 52.7°F11.5°C 48.3°F9.1°C 85% 3.5 mph W5.6 kmh W 10.0 mph16.1 kmh 30.04 in1017.3 mb 0.00 in0.0 mm 0.00 in0.0 mm 0.00 in0.0 mm